createdAt,value
2022-10-23T00:01:16.607Z,412.75
2022-10-23T00:03:45.959Z,395.83
2022-10-23T00:06:14.959Z,438.10
2022-10-23T00:08:43.044Z,432.45
2022-10-23T00:11:12.971Z,409.38
2022-10-23T00:13:41.121Z,402.35
2022-10-23T00:16:11.307Z,401.60
2022-10-23T00:18:40.448Z,398.13
2022-10-23T00:21:10.469Z,399.70
2022-10-23T00:23:38.585Z,444.27
2022-10-23T00:26:08.086Z,471.15
2022-10-23T00:28:36.235Z,481.27
2022-10-23T00:31:04.324Z,484.58
2022-10-23T00:33:34.335Z,481.25
2022-10-23T00:36:02.318Z,440.52
2022-10-23T00:38:30.112Z,422.05
2022-10-23T00:40:58.009Z,432.92
2022-10-23T00:43:28.279Z,473.67
2022-10-23T00:45:56.673Z,472.63
2022-10-23T00:48:25.383Z,432.55
2022-10-23T00:50:54.896Z,437.65
2022-10-23T00:53:23.871Z,508.60
2022-10-23T00:55:55.929Z,465.60
2022-10-23T00:58:24.158Z,497.40
2022-10-23T01:00:54.344Z,515.78
2022-10-23T01:03:26.246Z,497.60
2022-10-23T01:06:02.098Z,462.10
2022-10-23T01:08:36.291Z,421.00
2022-10-23T01:11:11.534Z,431.02
2022-10-23T01:13:45.987Z,450.55
2022-10-23T01:16:19.782Z,508.60
2022-10-23T01:18:54.948Z,554.17
2022-10-23T01:21:31.329Z,511.02
2022-10-23T01:24:10.133Z,527.10
2022-10-23T01:27:02.131Z,503.50
2022-10-23T01:29:38.273Z,487.85
2022-10-23T01:32:10.773Z,422.17
2022-10-23T01:34:47.453Z,424.92
2022-10-23T01:37:21.133Z,493.60
2022-10-23T01:39:52.794Z,431.55
2022-10-23T01:42:25.940Z,382.75
2022-10-23T01:45:01.433Z,397.13
2022-10-23T01:47:34.016Z,397.95
2022-10-23T01:50:03.680Z,381.90
2022-10-23T01:52:32.048Z,378.25
2022-10-23T01:55:02.462Z,414.27
2022-10-23T01:57:33.789Z,393.05
2022-10-23T02:00:07.814Z,375.15
2022-10-23T02:02:38.756Z,389.80
2022-10-23T02:05:11.968Z,347.83
2022-10-23T02:07:40.103Z,367.75
2022-10-23T02:10:10.786Z,351.45
2022-10-23T02:12:46.493Z,331.42
2022-10-23T02:15:24.193Z,341.95
2022-10-23T02:18:03.877Z,380.33
2022-10-23T02:20:38.971Z,348.65
2022-10-23T02:23:16.366Z,375.05
2022-10-23T02:25:50.333Z,379.67
2022-10-23T02:28:24.785Z,395.52
2022-10-23T02:30:56.500Z,425.02
2022-10-23T02:33:27.430Z,419.17
2022-10-23T02:35:55.777Z,436.10
2022-10-23T02:38:36.460Z,422.92
2022-10-23T02:41:42.869Z,366.95
2022-10-23T02:44:26.999Z,305.40
2022-10-23T02:47:05.895Z,235.73
2022-10-23T02:49:40.560Z,191.57
2022-10-23T02:52:15.884Z,173.45
2022-10-23T02:55:07.461Z,183.77
2022-10-23T02:57:38.869Z,182.43
2022-10-23T03:00:11.036Z,171.38
2022-10-23T03:02:43.063Z,181.07
2022-10-23T03:05:17.565Z,196.35
2022-10-23T03:07:47.029Z,227.85
2022-10-23T03:10:15.958Z,194.98
2022-10-23T03:12:43.873Z,373.95
2022-10-23T03:15:13.543Z,425.38
2022-10-23T03:17:42.849Z,534.35
2022-10-23T03:20:11.823Z,558.63
2022-10-23T03:22:40.684Z,578.17
2022-10-23T03:25:09.740Z,565.13
2022-10-23T03:27:38.007Z,529.38
2022-10-23T03:30:07.444Z,551.35
2022-10-23T03:32:35.512Z,581.97
2022-10-23T03:35:05.333Z,561.20
2022-10-23T03:37:33.124Z,575.78
2022-10-23T03:40:00.957Z,582.15
2022-10-23T03:42:28.762Z,588.33
2022-10-23T03:44:56.809Z,579.13
2022-10-23T03:47:24.903Z,572.42
2022-10-23T03:49:52.689Z,580.88
2022-10-23T03:52:21.984Z,580.78
2022-10-23T03:54:50.190Z,578.15
2022-10-23T03:57:17.997Z,595.60
2022-10-23T03:59:46.064Z,602.15
2022-10-23T04:02:13.942Z,599.28
2022-10-23T04:04:42.236Z,607.50
2022-10-23T04:07:10.241Z,583.53
2022-10-23T04:09:39.552Z,574.72
2022-10-23T04:12:09.218Z,582.67
2022-10-23T04:14:37.346Z,574.83
2022-10-23T04:17:05.178Z,577.35
2022-10-23T04:19:33.040Z,600.10
2022-10-23T04:22:01.154Z,589.80
2022-10-23T04:24:29.098Z,589.25
2022-10-23T04:26:58.397Z,585.40
2022-10-23T04:29:28.548Z,591.65
2022-10-23T04:31:56.375Z,577.38
2022-10-23T04:34:24.300Z,568.25
2022-10-23T04:36:52.321Z,587.45
2022-10-23T04:39:20.354Z,593.08
2022-10-23T04:41:48.504Z,598.22
2022-10-23T04:44:18.144Z,594.70
2022-10-23T04:46:46.060Z,586.13
2022-10-23T04:49:13.866Z,577.75
2022-10-23T04:51:41.683Z,564.45
2022-10-23T04:54:09.755Z,557.50
2022-10-23T04:56:37.981Z,582.80
2022-10-23T05:01:39.971Z,568.78
2022-10-23T05:04:07.832Z,566.97
2022-10-23T05:06:35.689Z,575.00
2022-10-23T05:09:03.642Z,558.83
2022-10-23T05:11:31.749Z,584.22
2022-10-23T05:13:59.609Z,542.58
2022-10-23T05:16:37.153Z,540.33
2022-10-23T05:19:08.857Z,526.75
2022-10-23T05:21:38.140Z,548.85
2022-10-23T05:24:06.604Z,535.13
2022-10-23T05:26:34.386Z,499.83
2022-10-23T05:29:02.432Z,539.28
2022-10-23T05:31:30.947Z,534.80
2022-10-23T05:33:58.736Z,502.42
2022-10-23T05:36:28.698Z,473.10
2022-10-23T05:38:56.608Z,481.45
2022-10-23T05:41:24.420Z,505.38
2022-10-23T05:43:52.238Z,471.77
2022-10-23T05:46:20.001Z,491.58
2022-10-23T05:48:51.183Z,484.17
2022-10-23T05:51:23.322Z,463.30
2022-10-23T05:53:53.641Z,472.58
2022-10-23T05:56:21.503Z,473.52
2022-10-23T05:58:49.810Z,502.67
2022-10-23T06:01:18.605Z,515.83
2022-10-23T06:03:46.615Z,499.05
2022-10-23T06:06:14.404Z,494.88
2022-10-23T06:08:42.576Z,502.83
2022-10-23T06:11:14.289Z,450.92
2022-10-23T06:13:44.635Z,446.60
2022-10-23T06:16:16.336Z,471.42
2022-10-23T06:18:44.703Z,512.47
2022-10-23T06:21:12.657Z,508.73
2022-10-23T06:23:41.760Z,522.67
2022-10-23T06:26:13.745Z,531.30
2022-10-23T06:28:41.996Z,524.10
2022-10-23T06:31:11.521Z,530.08
2022-10-23T06:33:39.452Z,511.13
2022-10-23T06:36:10.378Z,532.80
2022-10-23T06:38:40.559Z,533.30
2022-10-23T06:41:12.598Z,509.15
2022-10-23T06:43:42.293Z,538.15
2022-10-23T06:46:10.895Z,527.97
2022-10-23T06:48:38.898Z,532.28
2022-10-23T06:51:08.835Z,539.60
2022-10-23T06:53:38.132Z,515.85
2022-10-23T06:56:08.087Z,506.88
2022-10-23T06:58:38.274Z,495.10
2022-10-23T07:01:10.391Z,476.77
2022-10-23T07:03:38.324Z,522.85
2022-10-23T07:06:09.054Z,525.78
2022-10-23T07:08:37.758Z,554.25
2022-10-23T07:11:06.338Z,564.80
2022-10-23T07:13:35.726Z,555.72
2022-10-23T07:16:13.206Z,476.77
2022-10-23T07:18:41.487Z,520.70
2022-10-23T07:21:09.416Z,490.67
2022-10-23T07:23:37.612Z,463.38
2022-10-23T07:26:32.880Z,464.92
2022-10-23T07:29:00.702Z,449.27
2022-10-23T07:31:31.231Z,485.25
2022-10-23T07:34:08.653Z,504.42
2022-10-23T07:36:36.507Z,513.13
2022-10-23T07:39:04.900Z,517.42
2022-10-23T07:41:32.689Z,520.90
2022-10-23T07:44:00.819Z,537.22
2022-10-23T07:46:30.300Z,560.10
2022-10-23T07:48:58.158Z,612.67
2022-10-23T07:51:26.184Z,609.80
2022-10-23T07:53:54.267Z,612.92
2022-10-23T07:56:25.197Z,598.50
2022-10-23T07:58:54.219Z,555.33
2022-10-23T08:01:29.601Z,515.80
2022-10-23T08:03:59.005Z,506.17
2022-10-23T08:06:27.204Z,504.15
2022-10-23T08:08:55.208Z,610.50
2022-10-23T08:11:28.015Z,596.28
2022-10-23T08:13:57.629Z,600.05
2022-10-23T08:16:26.945Z,612.38
2022-10-23T08:18:55.566Z,604.70
2022-10-23T08:21:25.073Z,604.22
2022-10-23T08:23:56.008Z,606.20
2022-10-23T08:26:25.003Z,609.58
2022-10-23T08:28:53.273Z,617.95
2022-10-23T08:31:23.285Z,603.80
2022-10-23T08:33:51.622Z,610.90
2022-10-23T08:36:22.846Z,612.10
2022-10-23T08:38:53.715Z,619.25
2022-10-23T08:41:28.811Z,628.88
2022-10-23T08:44:08.702Z,622.55
2022-10-23T08:46:41.864Z,618.40
2022-10-23T08:49:26.098Z,618.83
2022-10-23T08:51:58.613Z,620.00
2022-10-23T08:54:35.638Z,611.97
2022-10-23T08:57:10.730Z,615.47
2022-10-23T08:59:46.484Z,618.97
2022-10-23T09:02:22.735Z,625.67
2022-10-23T09:04:53.104Z,622.83
2022-10-23T09:07:29.665Z,614.15
2022-10-23T09:10:11.780Z,616.85
2022-10-23T09:12:39.990Z,612.70
2022-10-23T09:15:31.700Z,616.38
2022-10-23T09:18:08.069Z,605.63
2022-10-23T09:20:37.533Z,606.35
2022-10-23T09:23:09.377Z,620.78
2022-10-23T09:25:41.385Z,611.83
2022-10-23T09:28:19.950Z,616.70
2022-10-23T09:30:51.752Z,617.58
2022-10-23T09:33:22.326Z,630.28
2022-10-23T09:36:00.337Z,620.25
2022-10-23T09:38:31.907Z,624.85
2022-10-23T09:41:11.412Z,622.05
2022-10-23T09:43:39.266Z,616.30
2022-10-23T09:46:09.758Z,617.80
2022-10-23T09:48:42.470Z,616.67
2022-10-23T09:51:19.566Z,621.55
2022-10-23T09:53:53.899Z,615.25
2022-10-23T09:56:32.412Z,623.60
2022-10-23T09:59:02.792Z,618.45
2022-10-23T10:01:33.764Z,615.30
2022-10-23T10:04:01.724Z,627.97
2022-10-23T10:06:33.425Z,614.65
2022-10-23T10:09:03.640Z,619.70
2022-10-23T10:11:39.271Z,616.15
2022-10-23T10:14:32.304Z,620.35
2022-10-23T10:17:04.620Z,622.25
2022-10-23T10:19:48.457Z,626.35
2022-10-23T10:22:31.503Z,621.97
2022-10-23T10:25:08.345Z,624.85
2022-10-23T10:27:46.933Z,624.38
2022-10-23T10:30:17.532Z,619.25
2022-10-23T10:32:51.382Z,630.03
2022-10-23T10:35:34.046Z,625.72
2022-10-23T10:38:32.243Z,632.58
2022-10-23T10:41:24.168Z,622.97
2022-10-23T10:44:10.485Z,625.25
2022-10-23T10:46:45.186Z,625.17
2022-10-23T10:49:21.398Z,628.60
2022-10-23T10:51:57.630Z,633.25
2022-10-23T10:54:40.435Z,629.88
2022-10-23T10:57:15.352Z,618.22
2022-10-23T10:59:48.891Z,621.55
2022-10-23T11:02:29.113Z,621.65
2022-10-23T11:05:06.030Z,627.28
2022-10-23T11:07:38.493Z,614.92
2022-10-23T11:10:17.403Z,622.42
2022-10-23T11:12:47.375Z,622.78
2022-10-23T11:15:22.964Z,621.38
2022-10-23T11:17:56.059Z,620.35
2022-10-23T11:20:46.601Z,614.88
2022-10-23T11:23:38.498Z,616.67
2022-10-23T11:26:21.523Z,619.03
2022-10-23T11:29:02.294Z,615.35
2022-10-23T11:31:40.308Z,592.13
2022-10-23T11:34:44.271Z,622.03
2022-10-23T11:37:19.077Z,623.88
2022-10-23T11:40:02.811Z,620.88
2022-10-23T11:42:46.847Z,621.10
2022-10-23T11:45:37.874Z,614.65
2022-10-23T11:48:20.727Z,614.80
2022-10-23T11:50:54.978Z,616.55
2022-10-23T11:53:40.969Z,624.95
2022-10-23T11:56:28.186Z,620.28
2022-10-23T11:58:58.689Z,621.15
2022-10-23T12:01:32.313Z,619.65
2022-10-23T12:04:05.062Z,623.53
2022-10-23T12:06:39.944Z,618.75
2022-10-23T12:09:20.113Z,616.15
2022-10-23T12:11:51.455Z,624.20
2022-10-23T12:14:30.816Z,618.65
2022-10-23T12:16:58.903Z,611.63
2022-10-23T12:19:47.923Z,611.72
2022-10-23T12:22:16.410Z,627.50
2022-10-23T12:24:57.024Z,614.30
2022-10-23T12:27:34.255Z,610.05
2022-10-23T12:30:16.613Z,607.72
2022-10-23T12:33:05.768Z,619.65
2022-10-23T12:35:50.300Z,605.45
2022-10-23T12:38:20.592Z,619.22
2022-10-23T12:40:52.935Z,619.90
2022-10-23T12:43:27.874Z,628.58
2022-10-23T12:45:57.411Z,609.50
2022-10-23T12:48:26.069Z,613.90
2022-10-23T12:50:56.725Z,615.42
2022-10-23T12:53:24.932Z,624.08
2022-10-23T12:55:57.457Z,622.63
2022-10-23T12:58:30.173Z,622.80
2022-10-23T13:01:00.232Z,621.88
2022-10-23T13:03:30.674Z,611.90
2022-10-23T13:06:02.760Z,644.15
2022-10-23T13:08:35.246Z,619.75
2022-10-23T13:11:04.255Z,624.33
2022-10-23T13:13:32.290Z,626.00
2022-10-23T13:16:00.221Z,625.92
2022-10-23T13:18:28.044Z,629.33
2022-10-23T13:23:32.581Z,638.58
2022-10-23T13:26:01.774Z,632.17
2022-10-23T13:28:33.441Z,628.83
2022-10-23T13:31:25.467Z,630.28
2022-10-23T13:34:06.826Z,625.05
2022-10-23T13:36:39.577Z,631.72
2022-10-23T13:39:15.143Z,635.28
2022-10-23T13:41:44.702Z,633.03
2022-10-23T13:44:13.915Z,623.17
2022-10-23T13:46:42.266Z,630.72
2022-10-23T13:49:10.468Z,630.63
2022-10-23T13:51:43.813Z,632.30
2022-10-23T13:54:16.154Z,634.38
2022-10-23T13:56:44.055Z,631.92
2022-10-23T13:59:12.463Z,627.95
2022-10-23T14:01:41.197Z,626.10
2022-10-23T14:04:09.592Z,636.38
2022-10-23T14:06:38.688Z,626.97
2022-10-23T14:09:10.349Z,632.70
2022-10-23T14:11:38.478Z,630.33
2022-10-23T14:14:06.305Z,637.47
2022-10-23T14:16:34.203Z,642.10
2022-10-23T14:19:02.069Z,639.17
2022-10-23T14:21:30.060Z,635.60
2022-10-23T14:23:58.911Z,632.40
2022-10-23T14:26:30.298Z,627.63
2022-10-23T14:29:02.438Z,634.75
2022-10-23T14:31:35.455Z,630.47
2022-10-23T14:34:03.581Z,628.85
2022-10-23T14:36:38.787Z,626.17
2022-10-23T14:39:17.883Z,632.22
2022-10-23T14:41:48.401Z,628.30
2022-10-23T14:44:16.755Z,639.00
2022-10-23T14:46:44.639Z,641.60
2022-10-23T14:49:12.464Z,630.17
2022-10-23T14:51:40.328Z,619.00
2022-10-23T14:54:09.295Z,634.80
2022-10-23T14:56:39.576Z,623.25
2022-10-23T14:59:10.983Z,631.80
2022-10-23T15:01:43.801Z,624.95
2022-10-23T15:04:15.806Z,633.28
2022-10-23T15:06:45.182Z,645.13
2022-10-23T15:09:13.185Z,640.05
2022-10-23T15:11:41.183Z,637.55
2022-10-23T15:14:10.394Z,634.72
2022-10-23T15:16:41.602Z,636.20
2022-10-23T15:19:13.532Z,636.28
2022-10-23T15:21:45.270Z,637.88
2022-10-23T15:24:13.249Z,622.88
2022-10-23T15:26:43.047Z,634.97
2022-10-23T15:29:14.956Z,628.45
2022-10-23T15:31:45.437Z,639.72
2022-10-23T15:34:17.829Z,638.03
2022-10-23T15:36:49.195Z,638.15
2022-10-23T15:39:19.348Z,640.78
2022-10-23T15:41:47.525Z,628.78
2022-10-23T15:44:18.306Z,635.03
2022-10-23T15:46:48.364Z,630.78
2022-10-23T15:49:16.698Z,635.42
2022-10-23T15:51:45.242Z,633.90
2022-10-23T15:54:18.497Z,636.63
2022-10-23T15:56:49.205Z,639.33
2022-10-23T15:59:19.402Z,639.35
2022-10-23T16:01:47.594Z,634.90
2022-10-23T16:04:16.220Z,641.58
2022-10-23T16:06:44.596Z,635.65
2022-10-23T16:09:12.678Z,643.08
2022-10-23T16:11:42.811Z,642.58
2022-10-23T16:14:13.907Z,638.80
2022-10-23T16:16:43.844Z,633.20
2022-10-23T16:19:12.790Z,631.67
2022-10-23T16:21:41.125Z,638.08
2022-10-23T16:24:09.837Z,629.45
2022-10-23T16:26:38.959Z,621.40
2022-10-23T16:29:08.813Z,632.70
2022-10-23T16:31:36.757Z,621.38
2022-10-23T16:34:09.153Z,621.80
2022-10-23T16:36:40.728Z,630.80
2022-10-23T16:39:09.774Z,642.97
2022-10-23T16:41:37.584Z,635.65
2022-10-23T16:44:05.553Z,631.22
2022-10-23T16:46:34.034Z,633.40
2022-10-23T16:49:02.954Z,635.30
2022-10-23T16:51:32.660Z,642.78
2022-10-23T16:54:00.784Z,647.33
2022-10-23T16:56:30.031Z,644.88
2022-10-23T17:01:33.354Z,638.67
2022-10-23T17:04:01.774Z,644.45
2022-10-23T17:06:33.414Z,637.30
2022-10-23T17:09:02.489Z,638.95
2022-10-23T17:11:32.232Z,647.92
2022-10-23T17:14:04.963Z,645.55
2022-10-23T17:16:36.217Z,651.97
2022-10-23T17:19:15.833Z,644.55
2022-10-23T17:21:55.858Z,645.28
2022-10-23T17:24:24.356Z,647.33
2022-10-23T17:26:52.564Z,639.05
2022-10-23T17:29:22.000Z,643.38
2022-10-23T17:31:51.503Z,642.30
2022-10-23T17:34:21.320Z,633.67
2022-10-23T17:36:52.547Z,638.53
2022-10-23T17:39:24.008Z,638.33
2022-10-23T17:41:54.817Z,634.83
2022-10-23T17:44:23.344Z,638.53
2022-10-23T17:46:55.082Z,639.08
2022-10-23T17:49:23.694Z,636.95
2022-10-23T17:51:53.836Z,641.70
2022-10-23T17:54:24.355Z,639.33
2022-10-23T17:56:52.355Z,635.78
2022-10-23T17:59:20.357Z,633.03
2022-10-23T18:01:49.704Z,634.33
2022-10-23T18:04:20.671Z,636.38
2022-10-23T18:06:50.630Z,633.40
2022-10-23T18:09:18.823Z,636.28
2022-10-23T18:11:48.847Z,640.08
2022-10-23T18:14:19.007Z,638.33
2022-10-23T18:16:47.176Z,635.75
2022-10-23T18:19:15.650Z,640.78
2022-10-23T18:21:44.276Z,638.03
2022-10-23T18:24:13.442Z,635.05
2022-10-23T18:26:42.998Z,651.10
2022-10-23T18:29:15.896Z,638.58
2022-10-23T18:31:48.398Z,647.75
2022-10-23T18:34:21.536Z,639.53
2022-10-23T18:36:50.628Z,635.08
2022-10-23T18:39:22.600Z,643.28
2022-10-23T18:41:55.161Z,642.00
2022-10-23T18:44:53.909Z,637.20
2022-10-23T18:47:26.176Z,638.83
2022-10-23T18:49:58.305Z,642.65
2022-10-23T18:52:30.581Z,638.05
2022-10-23T18:55:01.214Z,638.70
2022-10-23T18:57:31.047Z,641.67
2022-10-23T19:00:03.711Z,645.75
2022-10-23T19:02:32.059Z,640.33
2022-10-23T19:05:00.599Z,635.78
2022-10-23T19:07:35.233Z,633.45
2022-10-23T19:10:16.159Z,638.05
2022-10-23T19:12:50.354Z,644.00
2022-10-23T19:15:31.449Z,640.40
2022-10-23T19:18:01.577Z,644.75
2022-10-23T19:20:34.996Z,632.65
2022-10-23T19:23:12.779Z,648.25
2022-10-23T19:25:54.808Z,639.67
2022-10-23T19:28:23.370Z,641.17
2022-10-23T19:30:57.511Z,647.60
2022-10-23T19:33:34.596Z,651.20
2022-10-23T19:36:14.299Z,646.58
2022-10-23T19:38:45.257Z,642.67
2022-10-23T19:41:34.015Z,646.60
2022-10-23T19:44:06.368Z,643.80
2022-10-23T19:46:42.410Z,643.83
2022-10-23T19:49:11.393Z,655.15
2022-10-23T19:51:51.272Z,648.38
2022-10-23T19:54:24.864Z,648.47
2022-10-23T19:56:56.777Z,643.00
2022-10-23T19:59:25.159Z,643.22
2022-10-23T20:01:55.342Z,645.20
2022-10-23T20:04:23.695Z,642.50
2022-10-23T20:06:51.527Z,659.50
2022-10-23T20:09:19.332Z,651.35
2022-10-23T20:11:49.273Z,646.17
2022-10-23T20:14:20.638Z,648.33
2022-10-23T20:16:52.227Z,647.80
2022-10-23T20:19:25.375Z,641.92
2022-10-23T20:21:53.661Z,643.17
2022-10-23T20:24:22.870Z,644.20
2022-10-23T20:26:53.020Z,647.92
2022-10-23T20:29:21.578Z,641.50
2022-10-23T20:31:49.958Z,633.55
2022-10-23T20:34:19.044Z,640.42
2022-10-23T20:36:50.290Z,638.13
2022-10-23T20:39:20.604Z,640.47
2022-10-23T20:41:49.342Z,639.67
2022-10-23T20:44:19.387Z,642.03
2022-10-23T20:46:47.667Z,672.97
2022-10-23T20:49:16.477Z,641.20
2022-10-23T20:51:44.581Z,632.95
2022-10-23T20:54:14.072Z,641.25
2022-10-23T20:56:42.278Z,645.35
2022-10-23T20:59:12.685Z,638.00
2022-10-23T21:01:41.717Z,642.38
2022-10-23T21:04:12.422Z,644.85
2022-10-23T21:06:57.514Z,639.28
2022-10-23T21:09:31.844Z,637.40
2022-10-23T21:11:59.683Z,644.38
2022-10-23T21:14:28.715Z,645.88
2022-10-23T21:16:56.546Z,647.92
2022-10-23T21:19:24.462Z,645.05
2022-10-23T21:21:52.425Z,643.83
2022-10-23T21:24:20.377Z,641.67
2022-10-23T21:26:49.989Z,642.92
2022-10-23T21:29:19.370Z,644.08
2022-10-23T21:31:52.835Z,644.13
2022-10-23T21:34:20.769Z,638.67
2022-10-23T21:37:11.277Z,640.25
2022-10-23T21:39:36.403Z,641.55
2022-10-23T21:42:05.672Z,640.50
2022-10-23T21:44:33.532Z,648.80
2022-10-23T21:47:02.960Z,645.83
2022-10-23T21:49:30.837Z,640.70
2022-10-23T21:51:58.648Z,638.63
2022-10-23T21:54:26.637Z,642.05
2022-10-23T21:56:55.002Z,645.38
2022-10-23T21:59:27.905Z,643.75
2022-10-23T22:01:58.160Z,646.03
2022-10-23T22:04:26.137Z,640.60
2022-10-23T22:06:54.093Z,646.78
2022-10-23T22:09:23.045Z,646.67
2022-10-23T22:11:51.921Z,646.20
2022-10-23T22:14:20.267Z,629.03
2022-10-23T22:16:50.554Z,649.70
2022-10-23T22:19:19.373Z,643.30
2022-10-23T22:21:49.125Z,645.55
2022-10-23T22:24:18.632Z,643.33
2022-10-23T22:26:48.287Z,641.10
2022-10-23T22:29:18.759Z,645.30
2022-10-23T22:31:49.604Z,646.08
2022-10-23T22:37:12.753Z,632.97
2022-10-23T22:39:40.752Z,643.10
2022-10-23T22:42:08.891Z,650.15
2022-10-23T22:44:36.878Z,639.38
2022-10-23T22:47:05.177Z,636.80
2022-10-23T22:49:34.356Z,637.70
2022-10-23T22:52:02.204Z,639.35
2022-10-23T22:54:31.803Z,645.97
2022-10-23T22:56:59.892Z,640.58
2022-10-23T22:59:27.733Z,642.28
2022-10-23T23:01:56.277Z,638.47
2022-10-23T23:04:39.726Z,642.67
2022-10-23T23:07:11.020Z,641.95
2022-10-23T23:09:39.782Z,633.22
2022-10-23T23:12:09.417Z,639.55
2022-10-23T23:14:37.665Z,639.63
2022-10-23T23:17:06.235Z,642.50
2022-10-23T23:19:34.504Z,640.63
2022-10-23T23:22:03.414Z,635.45
2022-10-23T23:24:33.188Z,645.58
2022-10-23T23:27:01.007Z,631.20
2022-10-23T23:29:29.786Z,635.42
2022-10-23T23:31:57.752Z,637.75
2022-10-23T23:34:25.542Z,628.42
2022-10-23T23:36:53.370Z,636.17
2022-10-23T23:39:21.231Z,641.42
2022-10-23T23:41:50.492Z,618.25
2022-10-23T23:44:18.387Z,618.60
2022-10-23T23:46:46.252Z,618.75
2022-10-23T23:49:14.048Z,605.60
2022-10-23T23:51:42.017Z,619.38
2022-10-23T23:54:09.842Z,620.78
2022-10-23T23:56:38.005Z,617.88
2022-10-23T23:59:07.337Z,621.92
